Time;durP1;ratioP1;P1;durP2;ratioP2;P2;SDS_P1;SDS_P2;PMS_P1;PMS_P2;Temp;Humidity;BMP_temperature;BMP_pressure;BME280_temperature;BME280_humidity;BME280_pressure;Samples;Min_cycle;Max_cycle;Signal;HPM_P1;HPM_P2
2022/12/23 00:01:40;;;;;;;32.15;14.50;;;8.90;88.50;;;;;;5071505;28;20539;-71
2022/12/23 00:04:08;;;;;;;31.08;13.98;;;8.90;88.50;;;;;;5071678;28;20045;-71
2022/12/23 00:06:35;;;;;;;31.35;14.70;;;8.90;88.50;;;;;;5072449;28;20136;-71
2022/12/23 00:09:03;;;;;;;29.60;14.53;;;8.90;88.50;;;;;;5082065;28;20048;-71
2022/12/23 00:11:31;;;;;;;30.13;13.95;;;8.90;88.50;;;;;;5071980;28;20053;-71
2022/12/23 00:16:55;;;;;;;30.27;14.43;;;8.90;88.50;;;;;;5010883;28;20591;-70
2022/12/23 00:19:22;;;;;;;30.15;13.60;;;8.90;88.50;;;;;;5075069;28;20052;-71
2022/12/23 00:21:49;;;;;;;30.57;13.70;;;8.90;88.40;;;;;;5055230;28;20040;-71
2022/12/23 00:24:16;;;;;;;30.67;13.80;;;8.90;88.40;;;;;;5067501;28;20993;-71
2022/12/23 00:26:44;;;;;;;30.48;13.68;;;8.90;88.40;;;;;;5068895;28;20053;-71
2022/12/23 00:29:11;;;;;;;31.23;14.65;;;8.90;88.30;;;;;;5071733;28;20234;-71
2022/12/23 00:31:38;;;;;;;28.90;14.02;;;8.90;88.30;;;;;;5088337;28;20059;-71
2022/12/23 00:34:05;;;;;;;28.83;13.70;;;8.90;88.30;;;;;;5072391;28;20063;-71
2022/12/23 00:36:33;;;;;;;29.92;13.60;;;8.90;88.30;;;;;;5088911;28;20040;-71
2022/12/23 00:44:30;;;;;;;25.88;12.27;;;8.90;88.30;;;;;;5047454;28;20091;-71
2022/12/23 00:46:57;;;;;;;27.40;12.20;;;8.90;88.30;;;;;;5090240;28;20052;-71
2022/12/23 00:49:41;;;;;;;27.83;12.85;;;8.90;88.30;;;;;;5086124;28;20059;-71
2022/12/23 00:52:11;;;;;;;29.10;13.35;;;8.90;88.30;;;;;;5063197;28;20414;-71
2022/12/23 00:54:38;;;;;;;26.50;12.18;;;8.90;88.20;;;;;;5071697;28;20055;-71
2022/12/23 00:57:06;;;;;;;26.83;12.60;;;8.90;88.30;;;;;;5065685;28;20124;-71
2022/12/23 00:59:34;;;;;;;28.00;12.37;;;8.90;88.20;;;;;;5077966;28;20147;-71
2022/12/23 01:07:31;;;;;;;29.30;13.52;;;8.90;88.30;;;;;;5088259;28;20056;-71
2022/12/23 01:09:58;;;;;;;28.20;13.10;;;8.90;88.30;;;;;;5069908;28;20049;-71
2022/12/23 01:12:26;;;;;;;29.63;13.37;;;8.90;88.30;;;;;;5081608;28;20072;-71
2022/12/23 01:14:53;;;;;;;27.90;12.82;;;8.90;88.30;;;;;;5066333;28;20048;-71
2022/12/23 01:17:20;;;;;;;28.40;13.10;;;8.90;88.30;;;;;;5071880;28;20135;-71
2022/12/23 01:19:47;;;;;;;29.65;13.50;;;8.90;88.40;;;;;;5089601;28;20084;-71
2022/12/23 01:22:15;;;;;;;31.75;14.13;;;8.90;88.30;;;;;;5089731;28;20852;-71
2022/12/23 01:24:42;;;;;;;29.87;13.57;;;8.90;88.30;;;;;;5070051;28;20481;-71
2022/12/23 01:27:09;;;;;;;31.55;14.35;;;8.90;88.30;;;;;;5089988;28;20156;-71
2022/12/23 01:29:37;;;;;;;31.45;14.23;;;8.90;88.30;;;;;;5069407;28;20080;-71
2022/12/23 01:32:05;;;;;;;31.40;13.68;;;8.90;88.30;;;;;;5082862;28;20135;-71
2022/12/23 01:34:31;;;;;;;29.77;14.75;;;8.90;88.30;;;;;;5062742;28;20068;-71
2022/12/23 01:36:58;;;;;;;30.63;13.97;;;8.90;88.30;;;;;;5087368;28;20056;-71
2022/12/23 01:39:25;;;;;;;31.48;13.60;;;9.00;88.30;;;;;;5069400;28;20128;-71
2022/12/23 01:44:58;;;;;;;31.67;13.48;;;9.00;88.20;;;;;;5069168;28;20060;-71
2022/12/23 01:47:33;;;;;;;31.02;14.43;;;9.00;88.20;;;;;;5081868;28;20053;-71
2022/12/23 01:50:06;;;;;;;31.73;14.13;;;9.00;88.20;;;;;;5069870;28;20041;-71
2022/12/23 01:52:37;;;;;;;29.58;14.05;;;9.00;88.20;;;;;;5063363;28;20108;-71
2022/12/23 01:55:05;;;;;;;33.13;15.15;;;9.00;88.20;;;;;;5089156;28;20533;-71
2022/12/23 01:57:33;;;;;;;34.08;15.10;;;9.00;88.20;;;;;;5069377;28;20045;-71
2022/12/23 02:05:36;;;;;;;30.75;14.50;;;9.00;88.10;;;;;;5070657;28;20043;-71
2022/12/23 02:11:15;;;;;;;31.10;13.73;;;8.90;88.10;;;;;;5081599;28;20041;-71
2022/12/23 02:16:36;;;;;;;30.87;13.30;;;8.90;88.00;;;;;;5087195;28;20638;-71
2022/12/23 02:19:12;;;;;;;28.95;12.82;;;8.90;88.00;;;;;;5068847;28;20048;-71
2022/12/23 02:22:19;;;;;;;31.02;13.40;;;8.90;88.10;;;;;;5089039;28;20095;-71
2022/12/23 02:25:27;;;;;;;27.85;12.65;;;8.90;88.10;;;;;;5076891;28;20055;-71
2022/12/23 02:28:11;;;;;;;31.58;13.25;;;8.90;88.20;;;;;;5068415;28;20052;-71
2022/12/23 02:30:47;;;;;;;31.93;13.13;;;8.90;88.20;;;;;;5060816;28;20128;-71
2022/12/23 02:33:32;;;;;;;30.15;13.32;;;8.90;88.20;;;;;;5079665;28;20052;-71
2022/12/23 02:36:13;;;;;;;30.90;13.68;;;8.90;88.20;;;;;;5084955;28;20057;-71
2022/12/23 02:38:48;;;;;;;31.70;13.43;;;8.90;88.20;;;;;;5088113;28;20071;-68
2022/12/23 02:41:23;;;;;;;28.80;12.75;;;8.90;88.20;;;;;;5071404;28;20573;-71
2022/12/23 02:43:56;;;;;;;28.03;12.23;;;8.90;88.20;;;;;;5060017;28;20115;-71
2022/12/23 02:46:32;;;;;;;30.77;12.35;;;8.90;88.20;;;;;;5066521;28;20056;-71
2022/12/23 02:49:04;;;;;;;29.42;12.73;;;8.90;88.20;;;;;;5053102;28;20052;-71
2022/12/23 02:51:36;;;;;;;26.70;11.50;;;8.80;88.20;;;;;;5063450;28;20052;-71
2022/12/23 02:54:07;;;;;;;27.90;11.68;;;8.90;88.20;;;;;;5086002;28;20052;-70
2022/12/23 02:56:36;;;;;;;27.27;11.37;;;8.90;88.20;;;;;;5069889;28;20052;-71
2022/12/23 02:59:09;;;;;;;23.85;10.85;;;8.90;88.20;;;;;;5087733;28;20052;-71
2022/12/23 03:01:39;;;;;;;25.77;11.38;;;8.90;88.20;;;;;;5088483;28;20056;-71
2022/12/23 03:04:07;;;;;;;26.52;10.75;;;8.90;88.20;;;;;;5070064;28;20071;-71
2022/12/23 03:06:39;;;;;;;23.27;10.43;;;8.90;88.20;;;;;;5069691;28;20128;-72
2022/12/23 03:09:07;;;;;;;25.17;10.93;;;8.90;88.20;;;;;;5087570;28;20457;-71
2022/12/23 03:11:45;;;;;;;22.75;10.38;;;8.90;88.20;;;;;;5068695;28;20044;-71
2022/12/23 03:14:50;;;;;;;24.75;10.88;;;8.90;88.10;;;;;;5090019;28;20136;-71
2022/12/23 03:17:31;;;;;;;24.00;10.00;;;8.90;88.00;;;;;;5039247;28;20453;-71
2022/12/23 03:20:07;;;;;;;24.95;10.35;;;8.90;88.10;;;;;;5081464;28;20052;-71
2022/12/23 03:22:40;;;;;;;24.70;10.03;;;8.90;88.00;;;;;;5091718;28;20159;-71
2022/12/23 03:25:13;;;;;;;25.13;10.88;;;8.90;88.00;;;;;;5091388;28;21065;-71
2022/12/23 03:27:43;;;;;;;26.92;12.02;;;8.90;88.00;;;;;;5071201;28;20036;-71
2022/12/23 03:30:13;;;;;;;28.58;12.18;;;8.90;88.00;;;;;;5073007;28;20869;-71
2022/12/23 03:32:52;;;;;;;28.35;11.05;;;8.90;88.00;;;;;;5073179;28;20048;-71
2022/12/23 03:35:23;;;;;;;29.70;12.13;;;8.80;88.00;;;;;;5091435;28;20058;-71
2022/12/23 03:37:53;;;;;;;25.67;10.13;;;8.80;88.00;;;;;;5056097;28;20143;-71
2022/12/23 03:40:24;;;;;;;30.65;10.85;;;8.80;88.10;;;;;;5072976;28;20055;-71
2022/12/23 03:42:57;;;;;;;27.98;11.05;;;8.80;88.10;;;;;;5073359;28;20466;-71
2022/12/23 03:45:27;;;;;;;29.35;11.15;;;8.80;88.20;;;;;;5089565;28;20080;-70
2022/12/23 03:48:00;;;;;;;28.43;11.17;;;8.80;88.10;;;;;;5072959;28;20116;-71
2022/12/23 03:50:29;;;;;;;25.50;10.18;;;8.80;88.10;;;;;;5090615;28;20136;-71
2022/12/23 03:53:01;;;;;;;25.63;9.93;;;8.80;88.00;;;;;;5091198;28;20135;-70
2022/12/23 03:55:34;;;;;;;25.77;10.43;;;8.80;88.00;;;;;;5091564;28;20058;-71
2022/12/23 03:58:07;;;;;;;25.20;10.38;;;8.90;88.00;;;;;;5072154;28;20137;-71
2022/12/23 04:00:37;;;;;;;25.77;9.87;;;8.80;88.00;;;;;;5072183;28;20055;-71
2022/12/23 04:03:16;;;;;;;23.85;9.55;;;8.80;88.00;;;;;;5070797;28;20037;-71
2022/12/23 04:05:50;;;;;;;23.92;10.13;;;8.80;88.00;;;;;;5091181;28;20132;-71
2022/12/23 04:08:22;;;;;;;25.10;9.35;;;8.80;88.00;;;;;;5072311;28;20076;-71
2022/12/23 04:10:50;;;;;;;24.45;9.75;;;8.80;88.00;;;;;;5072579;28;20044;-71
2022/12/23 04:13:18;;;;;;;25.23;9.70;;;8.80;88.00;;;;;;5072445;28;20095;-71
2022/12/23 04:15:45;;;;;;;25.95;9.98;;;8.80;88.00;;;;;;5055636;28;20045;-71
2022/12/23 04:18:15;;;;;;;24.20;9.80;;;8.80;88.00;;;;;;5090843;28;20079;-71
2022/12/23 04:20:42;;;;;;;23.33;8.57;;;8.80;88.00;;;;;;5070773;28;20049;-71
2022/12/23 04:23:09;;;;;;;21.05;8.65;;;8.80;88.10;;;;;;5090891;28;20131;-71
2022/12/23 04:25:37;;;;;;;25.73;9.50;;;8.70;88.10;;;;;;5071655;28;20076;-71
2022/12/23 04:28:04;;;;;;;22.35;9.18;;;8.70;88.10;;;;;;5090894;28;20528;-71
2022/12/23 04:30:31;;;;;;;23.77;8.80;;;8.60;88.20;;;;;;5063285;28;20059;-71
2022/12/23 04:32:58;;;;;;;22.20;8.90;;;8.60;88.20;;;;;;5090652;28;20052;-71
2022/12/23 04:35:27;;;;;;;25.92;9.63;;;8.60;88.20;;;;;;5090411;28;20044;-71
2022/12/23 04:37:54;;;;;;;25.03;9.47;;;8.60;88.30;;;;;;5070541;28;20055;-71
2022/12/23 04:40:21;;;;;;;23.65;8.90;;;8.60;88.30;;;;;;5071699;28;20147;-71
2022/12/23 04:42:48;;;;;;;23.95;9.80;;;8.60;88.40;;;;;;5072428;28;20053;-71
2022/12/23 04:45:15;;;;;;;21.95;9.05;;;8.50;88.40;;;;;;5090369;28;20080;-71
2022/12/23 04:47:42;;;;;;;22.90;8.57;;;8.50;88.40;;;;;;5072138;28;20083;-71
2022/12/23 04:50:13;;;;;;;20.97;8.13;;;8.50;88.50;;;;;;5071392;28;20056;-71
2022/12/23 04:52:42;;;;;;;21.08;8.13;;;8.50;88.50;;;;;;5089989;28;20045;-71
2022/12/23 04:55:10;;;;;;;22.20;9.25;;;8.40;88.50;;;;;;5070354;28;20044;-71
2022/12/23 04:57:37;;;;;;;22.48;8.52;;;8.40;88.50;;;;;;5089949;28;20044;-71
2022/12/23 05:00:06;;;;;;;19.55;7.90;;;8.40;88.70;;;;;;5089564;28;20202;-71
2022/12/23 05:02:33;;;;;;;19.57;7.90;;;8.40;88.70;;;;;;5072150;28;20048;-71
2022/12/23 05:05:00;;;;;;;22.52;8.07;;;8.30;88.80;;;;;;5071728;28;20084;-71
2022/12/23 05:07:27;;;;;;;20.80;7.72;;;8.30;88.90;;;;;;5071293;28;20044;-71
2022/12/23 05:10:00;;;;;;;20.17;7.47;;;8.30;89.00;;;;;;5089308;28;20118;-71
2022/12/23 05:12:28;;;;;;;21.17;8.02;;;8.30;89.10;;;;;;5069582;28;20110;-71
2022/12/23 05:14:55;;;;;;;21.23;7.53;;;8.30;89.20;;;;;;5071639;28;20040;-71
2022/12/23 05:17:23;;;;;;;19.25;7.55;;;8.30;89.30;;;;;;5071377;28;20080;-71
2022/12/23 05:19:50;;;;;;;19.08;7.57;;;8.30;89.20;;;;;;5070992;28;20056;-71
2022/12/23 05:22:17;;;;;;;23.00;8.57;;;8.40;89.20;;;;;;5060904;28;20150;-70
2022/12/23 05:24:44;;;;;;;23.60;8.88;;;8.40;89.10;;;;;;5065937;28;20131;-71
2022/12/23 05:27:13;;;;;;;23.23;8.43;;;8.40;89.10;;;;;;5071607;28;20053;-71
2022/12/23 05:29:40;;;;;;;23.23;8.88;;;8.40;89.00;;;;;;5089154;28;20049;-71
2022/12/23 05:32:07;;;;;;;23.23;9.00;;;8.40;88.90;;;;;;5087004;28;20562;-71
2022/12/23 05:34:34;;;;;;;23.40;8.48;;;8.40;88.90;;;;;;5089181;28;20197;-71
2022/12/23 05:37:01;;;;;;;23.15;8.85;;;8.40;88.90;;;;;;5069586;28;20040;-71
2022/12/23 05:39:29;;;;;;;25.23;8.97;;;8.40;89.00;;;;;;5076923;28;20136;-70
2022/12/23 05:41:56;;;;;;;25.88;8.40;;;8.40;89.00;;;;;;5070284;28;20075;-71
2022/12/23 05:44:24;;;;;;;24.23;8.73;;;8.40;88.90;;;;;;5071084;28;20068;-71
2022/12/23 05:46:51;;;;;;;24.73;8.75;;;8.40;89.00;;;;;;5070585;28;20051;-71
2022/12/23 05:49:18;;;;;;;21.48;8.27;;;8.40;88.90;;;;;;5060168;28;20067;-71
2022/12/23 05:51:46;;;;;;;23.47;8.47;;;8.40;89.00;;;;;;5070751;28;20151;-71
2022/12/23 05:54:13;;;;;;;20.50;7.05;;;8.40;88.90;;;;;;5089261;28;20063;-71
2022/12/23 05:56:40;;;;;;;30.38;7.78;;;8.40;88.90;;;;;;5089074;28;20059;-71
2022/12/23 05:59:07;;;;;;;30.75;7.35;;;8.40;88.90;;;;;;5070387;28;20051;-71
2022/12/23 06:01:36;;;;;;;28.40;6.20;;;8.40;88.90;;;;;;5070733;28;20978;-71
2022/12/23 06:04:03;;;;;;;22.77;6.50;;;8.30;88.70;;;;;;5089492;28;20045;-71
2022/12/23 06:06:30;;;;;;;17.73;6.55;;;8.30;88.80;;;;;;5068991;28;21125;-71
2022/12/23 06:08:57;;;;;;;23.67;7.25;;;8.30;88.90;;;;;;5070704;28;20139;-71
2022/12/23 06:11:25;;;;;;;23.20;7.22;;;8.30;88.90;;;;;;5088729;28;20064;-71
2022/12/23 06:13:52;;;;;;;19.75;6.60;;;8.30;89.00;;;;;;5088615;28;20052;-71
2022/12/23 06:16:19;;;;;;;16.70;6.50;;;8.30;88.90;;;;;;5066881;28;20040;-71
2022/12/23 06:18:47;;;;;;;25.02;7.22;;;8.30;88.90;;;;;;5088127;28;20044;-71
2022/12/23 06:21:15;;;;;;;19.73;7.30;;;8.30;88.80;;;;;;5059063;28;20953;-71
2022/12/23 06:23:42;;;;;;;40.20;8.10;;;8.20;88.80;;;;;;5061528;28;20052;-71
2022/12/23 06:26:09;;;;;;;52.03;9.10;;;8.20;88.90;;;;;;5063471;28;20054;-71
2022/12/23 06:28:36;;;;;;;24.13;7.57;;;8.20;89.00;;;;;;5077543;28;20060;-71
2022/12/23 06:31:03;;;;;;;26.85;7.50;;;8.20;89.00;;;;;;5070472;28;20128;-71
2022/12/23 06:33:30;;;;;;;32.83;7.70;;;8.10;89.00;;;;;;5057909;28;20085;-71
2022/12/23 06:35:59;;;;;;;24.90;7.28;;;8.10;89.10;;;;;;5080014;28;20080;-71
2022/12/23 06:38:26;;;;;;;36.88;8.18;;;8.10;89.10;;;;;;5098443;28;20079;-71
2022/12/23 06:40:53;;;;;;;22.50;7.13;;;8.10;89.20;;;;;;5068393;28;20051;-71
2022/12/23 06:43:20;;;;;;;35.00;7.72;;;8.10;89.10;;;;;;5065417;28;20625;-71
2022/12/23 06:45:48;;;;;;;37.25;8.13;;;8.10;89.20;;;;;;5083921;28;20111;-71
2022/12/23 06:48:16;;;;;;;32.35;8.07;;;8.10;89.10;;;;;;5096165;28;20724;-71
2022/12/23 06:50:43;;;;;;;37.67;8.18;;;8.10;89.10;;;;;;5077885;28;20136;-72
2022/12/23 06:53:12;;;;;;;41.20;7.47;;;8.10;89.10;;;;;;5077147;28;20537;-71
2022/12/23 06:55:39;;;;;;;25.63;7.63;;;8.10;89.10;;;;;;5094785;28;20976;-71
2022/12/23 06:58:07;;;;;;;24.20;7.38;;;8.10;89.10;;;;;;5095247;28;20183;-72
2022/12/23 07:00:34;;;;;;;20.05;7.60;;;8.10;89.10;;;;;;5063147;28;20106;-71
2022/12/23 07:03:01;;;;;;;17.30;6.53;;;8.10;89.10;;;;;;5073705;28;20582;-71
2022/12/23 07:05:28;;;;;;;43.40;7.73;;;8.00;89.10;;;;;;5094770;28;20070;-71
2022/12/23 07:07:57;;;;;;;33.30;7.68;;;8.00;89.20;;;;;;5060140;28;20167;-71
2022/12/23 07:10:26;;;;;;;31.77;7.53;;;8.00;89.20;;;;;;5092490;28;20566;-71
2022/12/23 07:12:53;;;;;;;38.15;8.98;;;8.10;89.20;;;;;;5078405;28;20155;-72
2022/12/23 07:15:20;;;;;;;32.15;7.82;;;8.00;89.30;;;;;;5091612;28;20128;-71
2022/12/23 07:17:47;;;;;;;34.70;7.17;;;8.10;89.30;;;;;;5095284;28;20052;-71
2022/12/23 07:20:15;;;;;;;24.70;7.35;;;8.10;89.20;;;;;;5062810;28;21492;-71
2022/12/23 07:22:42;;;;;;;19.75;6.93;;;8.00;89.20;;;;;;5090863;28;20052;-71
2022/12/23 07:25:10;;;;;;;22.80;7.28;;;8.00;89.20;;;;;;5094014;28;20052;-71
2022/12/23 07:27:38;;;;;;;20.90;7.05;;;8.00;89.20;;;;;;5092623;28;20569;-71
2022/12/23 07:30:06;;;;;;;18.07;6.67;;;8.00;89.30;;;;;;5066195;28;20143;-71
2022/12/23 07:32:34;;;;;;;17.27;6.60;;;8.00;89.40;;;;;;5068744;28;20091;-71
2022/12/23 07:35:01;;;;;;;17.42;7.10;;;8.00;89.40;;;;;;5068697;28;20144;-71
2022/12/23 07:37:28;;;;;;;18.80;6.63;;;8.00;89.40;;;;;;5065469;28;20484;-71
2022/12/23 07:39:55;;;;;;;19.48;7.05;;;8.00;89.40;;;;;;5044410;28;20052;-71
2022/12/23 07:42:22;;;;;;;20.83;7.93;;;8.00;89.50;;;;;;5061381;28;20055;-71
2022/12/23 07:44:50;;;;;;;21.20;8.57;;;8.00;89.50;;;;;;5082847;28;20061;-71
2022/12/23 07:47:17;;;;;;;23.00;8.23;;;8.00;89.50;;;;;;5067670;28;20041;-71
2022/12/23 07:49:44;;;;;;;20.92;8.15;;;8.00;89.50;;;;;;5067041;28;20064;-71
2022/12/23 07:52:12;;;;;;;21.92;8.10;;;8.00;89.50;;;;;;5084842;28;20064;-72
2022/12/23 07:54:39;;;;;;;19.33;7.80;;;8.00;89.60;;;;;;5066088;28;20143;-72
2022/12/23 07:57:06;;;;;;;21.75;8.00;;;8.00;89.60;;;;;;5082557;28;20501;-72
2022/12/23 07:59:33;;;;;;;23.75;8.07;;;8.00;89.60;;;;;;5050317;28;20102;-72
2022/12/23 08:02:02;;;;;;;20.05;7.68;;;8.00;89.60;;;;;;5069519;28;20045;-71
2022/12/23 08:04:29;;;;;;;19.40;7.32;;;8.00;89.70;;;;;;5066233;28;20545;-71
2022/12/23 08:06:56;;;;;;;20.97;8.20;;;8.00;89.70;;;;;;5090935;28;20954;-71
2022/12/23 08:09:23;;;;;;;24.60;8.68;;;8.00;89.70;;;;;;5097571;28;20053;-71
2022/12/23 08:11:50;;;;;;;20.10;7.40;;;8.00;89.70;;;;;;5081847;28;20094;-71
2022/12/23 08:14:18;;;;;;;21.15;8.13;;;8.00;89.70;;;;;;5077664;28;20425;-71
2022/12/23 08:16:45;;;;;;;21.00;8.00;;;8.00;89.70;;;;;;5083122;28;20107;-71
2022/12/23 08:19:13;;;;;;;24.30;7.40;;;8.00;89.60;;;;;;5083819;28;20491;-71
2022/12/23 08:21:40;;;;;;;21.42;7.60;;;8.00;89.60;;;;;;5081237;28;20123;-71
2022/12/23 08:24:07;;;;;;;23.92;7.82;;;8.00;89.60;;;;;;5095168;28;20048;-71
2022/12/23 08:26:34;;;;;;;25.95;8.32;;;8.00;89.60;;;;;;5082215;28;20055;-71
2022/12/23 08:29:01;;;;;;;25.00;7.60;;;8.00;89.60;;;;;;5101450;28;20075;-71
2022/12/23 08:31:30;;;;;;;21.20;7.40;;;8.00;89.60;;;;;;5069064;28;20531;-71
2022/12/23 08:33:59;;;;;;;22.92;7.10;;;8.00;89.50;;;;;;5075709;28;20402;-71
2022/12/23 08:36:30;;;;;;;22.00;7.30;;;8.00;89.50;;;;;;5097389;28;20059;-71
2022/12/23 08:39:00;;;;;;;19.55;6.85;;;8.00;89.50;;;;;;5078142;28;20054;-71
2022/12/23 08:41:52;;;;;;;24.90;7.43;;;8.00;89.50;;;;;;5097824;28;21022;-71
2022/12/23 08:44:19;;;;;;;19.97;7.50;;;8.00;89.50;;;;;;5090418;28;20068;-71
2022/12/23 08:46:47;;;;;;;21.13;7.20;;;8.00;89.50;;;;;;5071530;28;20159;-71
2022/12/23 08:49:14;;;;;;;19.55;6.97;;;8.00;89.60;;;;;;5069106;28;20059;-71
2022/12/23 08:51:42;;;;;;;18.63;7.32;;;8.00;89.60;;;;;;5093112;28;20218;-71
2022/12/23 08:54:10;;;;;;;16.98;6.82;;;8.00;89.70;;;;;;5078704;28;20037;-71
2022/12/23 08:56:40;;;;;;;23.33;7.60;;;8.00;89.70;;;;;;5001650;28;20044;-71
2022/12/23 08:59:12;;;;;;;23.95;7.43;;;8.00;89.80;;;;;;5065018;28;20052;-71
2022/12/23 09:01:39;;;;;;;18.65;6.95;;;8.00;89.80;;;;;;5073644;28;20050;-71
2022/12/23 09:04:07;;;;;;;21.42;7.15;;;8.00;89.80;;;;;;5050934;28;20083;-72
2022/12/23 09:06:37;;;;;;;20.83;7.57;;;8.00;89.80;;;;;;5056022;28;20131;-71
2022/12/23 09:09:08;;;;;;;19.63;7.27;;;8.00;89.80;;;;;;5067533;28;20778;-71
2022/12/23 09:11:35;;;;;;;19.50;7.75;;;8.00;89.80;;;;;;5064852;28;20095;-71
2022/12/23 09:14:03;;;;;;;16.98;6.93;;;8.00;89.80;;;;;;5045732;28;20041;-71
2022/12/23 09:16:30;;;;;;;19.27;7.28;;;8.00;89.90;;;;;;5029200;28;20055;-71
2022/12/23 09:18:58;;;;;;;18.52;7.00;;;8.00;89.80;;;;;;5089301;28;20168;-71
2022/12/23 09:21:25;;;;;;;17.90;6.73;;;8.00;89.90;;;;;;5097112;28;20171;-70
2022/12/23 09:23:52;;;;;;;16.23;6.88;;;8.10;89.90;;;;;;5079807;28;20131;-71
2022/12/23 09:26:23;;;;;;;17.00;7.10;;;8.10;89.90;;;;;;5092764;28;20140;-71
2022/12/23 09:28:51;;;;;;;16.60;7.22;;;8.10;89.90;;;;;;5079655;28;20051;-71
2022/12/23 09:31:19;;;;;;;16.98;6.53;;;8.10;89.80;;;;;;5072835;28;20056;-72
2022/12/23 09:33:47;;;;;;;18.40;6.80;;;8.10;89.90;;;;;;5094786;28;20072;-72
2022/12/23 09:36:15;;;;;;;16.20;6.63;;;8.10;89.90;;;;;;5068532;28;20045;-72
2022/12/23 09:39:00;;;;;;;16.92;6.70;;;8.10;89.90;;;;;;5086814;28;20052;-72
2022/12/23 09:41:37;;;;;;;17.60;6.60;;;8.10;89.90;;;;;;5067997;28;20048;-72
2022/12/23 09:44:18;;;;;;;15.73;6.30;;;8.10;89.90;;;;;;5084265;28;20059;-72
2022/12/23 09:46:50;;;;;;;18.17;5.83;;;8.10;90.00;;;;;;5086920;28;20123;-72
2022/12/23 09:49:18;;;;;;;15.43;6.22;;;8.10;90.00;;;;;;5051921;28;20056;-72
2022/12/23 09:51:46;;;;;;;16.95;6.80;;;8.10;90.10;;;;;;5083346;28;20075;-72
2022/12/23 09:54:18;;;;;;;17.23;6.65;;;8.10;90.10;;;;;;5066922;28;20518;-72
2022/12/23 09:56:51;;;;;;;18.05;6.85;;;8.20;90.20;;;;;;5085350;28;20071;-72
2022/12/23 09:59:30;;;;;;;16.27;6.33;;;8.20;90.20;;;;;;5066613;28;20143;-72
2022/12/23 10:02:04;;;;;;;15.98;6.22;;;8.20;90.20;;;;;;5067805;28;21018;-72
2022/12/23 10:04:46;;;;;;;16.38;6.30;;;8.20;90.30;;;;;;5083509;28;20063;-72
2022/12/23 10:07:31;;;;;;;15.95;6.35;;;8.20;90.30;;;;;;5049295;28;20396;-72
2022/12/23 10:10:07;;;;;;;16.58;6.40;;;8.20;90.40;;;;;;5048912;28;20041;-72
2022/12/23 10:12:40;;;;;;;14.20;5.63;;;8.20;90.40;;;;;;5086906;28;20688;-72
2022/12/23 10:15:19;;;;;;;13.95;5.75;;;8.20;90.40;;;;;;5095158;28;20137;-72
2022/12/23 10:17:51;;;;;;;15.98;6.10;;;8.20;90.50;;;;;;5069047;28;20044;-73
2022/12/23 10:20:23;;;;;;;15.70;6.13;;;8.20;90.40;;;;;;5056171;28;20049;-73
2022/12/23 10:22:51;;;;;;;16.55;6.28;;;8.20;90.40;;;;;;5064747;28;20072;-72
2022/12/23 10:25:25;;;;;;;16.93;6.80;;;8.30;90.40;;;;;;5072559;28;20053;-72
2022/12/23 10:27:54;;;;;;;17.75;6.38;;;8.30;90.30;;;;;;5077900;28;20082;-72
2022/12/23 10:30:23;;;;;;;15.65;6.68;;;8.30;90.30;;;;;;5070117;28;20056;-73
2022/12/23 10:33:01;;;;;;;17.80;6.75;;;8.30;90.40;;;;;;5078690;28;20048;-72
2022/12/23 10:35:45;;;;;;;17.15;6.88;;;8.30;90.40;;;;;;5077887;28;20157;-72
2022/12/23 10:38:26;;;;;;;18.50;6.10;;;8.30;90.40;;;;;;5097732;28;20055;-72
2022/12/23 10:41:02;;;;;;;15.77;6.70;;;8.30;90.50;;;;;;5080056;28;20072;-73
2022/12/23 10:43:37;;;;;;;15.05;6.80;;;8.30;90.40;;;;;;5058943;28;20059;-72
2022/12/23 10:46:17;;;;;;;15.00;6.18;;;8.30;90.50;;;;;;5091785;28;20593;-72
2022/12/23 10:48:54;;;;;;;15.60;6.47;;;8.40;90.50;;;;;;5098736;28;20052;-72
2022/12/23 10:51:28;;;;;;;16.23;6.53;;;8.40;90.50;;;;;;5086912;28;20049;-72
2022/12/23 10:53:59;;;;;;;15.07;5.63;;;8.40;90.50;;;;;;5065914;28;20135;-73
2022/12/23 10:56:28;;;;;;;15.38;5.97;;;8.40;90.50;;;;;;5081311;28;20181;-71
2022/12/23 10:58:58;;;;;;;15.55;6.10;;;8.40;90.60;;;;;;5090810;28;20079;-72
2022/12/23 11:01:29;;;;;;;14.82;6.32;;;8.40;90.50;;;;;;5075824;28;20052;-72
2022/12/23 11:04:04;;;;;;;13.23;5.63;;;8.40;90.50;;;;;;5093987;28;20056;-72
2022/12/23 11:06:33;;;;;;;12.90;5.35;;;8.40;90.60;;;;;;5061894;28;20815;-72
2022/12/23 11:09:02;;;;;;;13.85;5.97;;;8.40;90.50;;;;;;5092521;28;20131;-72
2022/12/23 11:11:57;;;;;;;15.70;5.78;;;8.50;90.50;;;;;;5063923;28;20059;-72
2022/12/23 11:14:38;;;;;;;14.77;5.70;;;8.40;90.60;;;;;;5062729;28;20140;-72
2022/12/23 11:17:18;;;;;;;12.83;5.30;;;8.50;90.60;;;;;;5079733;28;20059;-72
2022/12/23 11:19:45;;;;;;;13.88;5.65;;;8.40;90.60;;;;;;5050362;28;20045;-72
2022/12/23 11:22:24;;;;;;;13.90;5.28;;;8.40;90.60;;;;;;5080064;28;20565;-72
2022/12/23 11:24:51;;;;;;;12.02;5.22;;;8.50;90.70;;;;;;5084074;28;20049;-72
2022/12/23 11:27:19;;;;;;;12.25;5.45;;;8.50;90.70;;;;;;5066661;28;20445;-72
2022/12/23 11:29:51;;;;;;;12.23;4.97;;;8.50;90.70;;;;;;5077805;28;20044;-72
2022/12/23 11:32:22;;;;;;;13.18;5.13;;;8.50;90.70;;;;;;5068053;28;20514;-72
2022/12/23 11:34:50;;;;;;;12.45;5.40;;;8.50;90.70;;;;;;5058690;28;20080;-72
2022/12/23 11:37:28;;;;;;;10.90;4.60;;;8.50;90.60;;;;;;5070114;28;20136;-72
2022/12/23 11:39:55;;;;;;;11.18;4.65;;;8.50;90.60;;;;;;5096117;28;20056;-72
2022/12/23 11:42:27;;;;;;;11.50;4.73;;;8.50;90.60;;;;;;5103302;22;20541;-72
2022/12/23 11:44:59;;;;;;;11.13;4.70;;;8.50;90.60;;;;;;5059954;28;20057;-72
2022/12/23 11:47:32;;;;;;;11.65;5.18;;;8.60;90.60;;;;;;5057164;28;20057;-72
2022/12/23 11:50:01;;;;;;;11.85;4.88;;;8.50;90.50;;;;;;5079719;28;20053;-72
2022/12/23 11:52:30;;;;;;;11.98;5.00;;;8.50;90.50;;;;;;5075441;28;20171;-73
2022/12/23 11:54:59;;;;;;;12.17;5.00;;;8.50;90.50;;;;;;5062008;28;20041;-72
2022/12/23 11:57:33;;;;;;;11.25;4.82;;;8.50;90.60;;;;;;5060395;28;20156;-73
2022/12/23 12:00:05;;;;;;;11.00;5.03;;;8.60;90.70;;;;;;5059829;28;20136;-72
2022/12/23 12:02:37;;;;;;;11.65;4.78;;;8.60;90.70;;;;;;5062835;28;20667;-72
2022/12/23 12:05:16;;;;;;;13.27;5.20;;;8.60;90.60;;;;;;5075548;28;20503;-71
2022/12/23 12:07:44;;;;;;;11.67;5.43;;;8.60;90.60;;;;;;5070824;28;20531;-71
2022/12/23 12:10:17;;;;;;;12.55;5.07;;;8.60;90.60;;;;;;5069244;28;20163;-72
2022/12/23 12:12:45;;;;;;;12.77;5.43;;;8.60;90.60;;;;;;5050452;28;20053;-72
2022/12/23 12:15:27;;;;;;;12.00;5.22;;;8.60;90.40;;;;;;5049731;28;20055;-71
2022/12/23 12:17:57;;;;;;;12.52;5.25;;;8.60;90.50;;;;;;5064693;28;20061;-72
2022/12/23 12:20:29;;;;;;;13.17;4.50;;;8.60;90.50;;;;;;5058408;28;20190;-71
2022/12/23 12:23:00;;;;;;;12.45;4.97;;;8.60;90.40;;;;;;5051010;28;20056;-71
2022/12/23 12:25:37;;;;;;;14.05;6.15;;;8.60;90.40;;;;;;5056512;28;20084;-72
2022/12/23 12:28:10;;;;;;;12.68;4.90;;;8.60;90.30;;;;;;5001314;28;20110;-72
2022/12/23 12:30:43;;;;;;;12.57;5.45;;;8.60;90.30;;;;;;5060794;28;20156;-71
2022/12/23 12:33:16;;;;;;;12.37;5.10;;;8.60;90.40;;;;;;5052333;28;20161;-71
2022/12/23 12:35:48;;;;;;;13.02;5.63;;;8.60;90.50;;;;;;5041793;28;20175;-71
2022/12/23 12:38:21;;;;;;;12.73;5.85;;;8.60;90.50;;;;;;5041862;28;20052;-72
2022/12/23 12:40:52;;;;;;;15.13;5.70;;;8.60;90.50;;;;;;5054294;28;20125;-71
2022/12/23 12:43:26;;;;;;;11.77;5.05;;;8.60;90.40;;;;;;5052331;28;20065;-72
2022/12/23 12:46:08;;;;;;;11.90;5.00;;;8.60;90.40;;;;;;5074688;28;20136;-72
2022/12/23 12:48:45;;;;;;;11.88;5.22;;;8.60;90.30;;;;;;5054478;28;20067;-72
2022/12/23 12:51:18;;;;;;;12.15;4.93;;;8.60;90.30;;;;;;5055183;28;20658;-72
2022/12/23 12:53:59;;;;;;;12.43;4.80;;;8.60;90.30;;;;;;5053076;28;20046;-72
2022/12/23 12:56:31;;;;;;;11.18;5.05;;;8.60;90.30;;;;;;5061592;28;20131;-72
2022/12/23 12:58:58;;;;;;;10.77;4.80;;;8.60;90.40;;;;;;5046528;28;20532;-72
2022/12/23 13:01:44;;;;;;;11.02;4.57;;;8.60;90.30;;;;;;5040888;28;20049;-72
2022/12/23 13:04:45;;;;;;;10.82;5.05;;;8.60;90.40;;;;;;5056997;28;20045;-71
2022/12/23 13:07:23;;;;;;;12.05;4.82;;;8.60;90.40;;;;;;5004249;28;20077;-72
2022/12/23 13:10:00;;;;;;;10.75;4.78;;;8.60;90.30;;;;;;5049257;28;20152;-72
2022/12/23 13:12:42;;;;;;;12.00;5.23;;;8.60;90.30;;;;;;5059745;28;20062;-72
2022/12/23 13:15:18;;;;;;;11.20;4.47;;;8.60;90.30;;;;;;5077089;28;20136;-72
2022/12/23 13:17:57;;;;;;;11.35;5.18;;;8.60;90.30;;;;;;5074801;28;20063;-72
2022/12/23 13:20:32;;;;;;;12.00;5.18;;;8.60;90.30;;;;;;5052155;28;20413;-72
2022/12/23 13:23:09;;;;;;;11.38;5.10;;;8.60;90.30;;;;;;5058300;28;20503;-72
2022/12/23 13:25:42;;;;;;;11.97;5.20;;;8.60;90.30;;;;;;5054622;28;20048;-72
2022/12/23 13:28:23;;;;;;;12.20;5.15;;;8.60;90.30;;;;;;5056002;28;20053;-72
2022/12/23 13:30:58;;;;;;;13.02;5.65;;;8.60;90.30;;;;;;5045186;28;20055;-71